Time;durP1;ratioP1;P1;durP2;ratioP2;P2;SDS_P1;SDS_P2;PMS_P1;PMS_P2;Temp;Humidity;BMP_temperature;BMP_pressure;BME280_temperature;BME280_humidity;BME280_pressure;Samples;Min_cycle;Max_cycle;Signal;HPM_P1;HPM_P2
2023/01/02 00:01:39;;;;;;;12.07;6.10;;;;;;;10.72;100.00;100933.00;5051395;28;20028;-54
2023/01/02 00:04:04;;;;;;;13.38;6.15;;;;;;;10.77;100.00;100922.03;5051047;28;20025;-51
2023/01/02 00:06:33;;;;;;;11.95;5.72;;;;;;;10.77;100.00;100930.00;5050329;28;20054;-53
2023/01/02 00:08:58;;;;;;;;;;;;;;;10.82;100.00;100934.00;5045165;28;20467;-53
2023/01/02 00:11:24;;;;;;;12.57;5.90;;;;;;;10.82;100.00;100930.50;5046876;28;19966;-52
2023/01/02 00:13:49;;;;;;;12.38;5.40;;;;;;;10.81;100.00;100929.66;5050294;28;20032;-54
2023/01/02 00:16:14;;;;;;;10.45;5.38;;;;;;;10.83;100.00;100919.75;5049666;28;20025;-53
2023/01/02 00:18:39;;;;;;;16.40;6.18;;;;;;;10.82;100.00;100923.34;5038713;28;20017;-53
2023/01/02 00:21:06;;;;;;;16.52;6.57;;;;;;;10.82;100.00;100926.03;5050941;28;20107;-55
2023/01/02 00:23:31;;;;;;;12.10;5.90;;;;;;;10.81;100.00;100907.53;5051642;28;20112;-54
2023/01/02 00:25:57;;;;;;;11.88;5.55;;;;;;;10.83;100.00;100910.94;5053732;28;20104;-54
2023/01/02 00:28:23;;;;;;;13.90;5.88;;;;;;;10.86;100.00;100908.91;5050207;28;20028;-56
2023/01/02 00:30:48;;;;;;;12.02;6.05;;;;;;;10.85;100.00;100907.19;5051081;28;20083;-54
2023/01/02 00:33:14;;;;;;;15.02;6.35;;;;;;;10.86;100.00;100911.56;5050923;28;20021;-56
2023/01/02 00:35:39;;;;;;;13.85;7.15;;;;;;;10.85;100.00;100907.19;5049556;28;20032;-55
2023/01/02 00:38:05;;;;;;;13.52;6.43;;;;;;;10.88;100.00;100906.13;5054197;28;20036;-56
2023/01/02 00:40:30;;;;;;;13.80;6.72;;;;;;;10.87;100.00;100897.28;5053404;28;20013;-56
2023/01/02 00:42:55;;;;;;;13.32;6.68;;;;;;;10.89;100.00;100891.84;5049735;28;20021;-55
2023/01/02 00:45:21;;;;;;;14.13;6.75;;;;;;;10.89;100.00;100898.03;5050614;28;20062;-55
2023/01/02 00:47:46;;;;;;;14.63;6.38;;;;;;;10.89;100.00;100898.03;5043794;28;20033;-55
2023/01/02 00:50:12;;;;;;;15.70;6.53;;;;;;;10.93;100.00;100901.28;5049568;28;20374;-52
2023/01/02 00:52:37;;;;;;;13.07;6.93;;;;;;;10.94;100.00;100897.66;5050557;28;20047;-56
2023/01/02 00:55:02;;;;;;;17.65;7.35;;;;;;;10.97;100.00;100889.44;5049751;28;20116;-54
2023/01/02 00:57:28;;;;;;;13.77;5.70;;;;;;;11.00;100.00;100894.53;5050264;28;20033;-55
2023/01/02 00:59:53;;;;;;;16.30;6.10;;;;;;;11.04;100.00;100876.53;5050670;28;20104;-51
2023/01/02 01:02:18;;;;;;;14.82;5.93;;;;;;;11.05;100.00;100883.53;5054504;28;20029;-53
2023/01/02 01:04:44;;;;;;;13.85;5.75;;;;;;;11.10;100.00;100884.03;5054027;28;20056;-52
2023/01/02 01:07:09;;;;;;;18.00;5.78;;;;;;;11.14;100.00;100876.66;5047918;28;20114;-52
2023/01/02 01:09:34;;;;;;;11.55;5.38;;;;;;;11.18;100.00;100870.97;5042955;28;20032;-56
2023/01/02 01:11:59;;;;;;;17.25;6.38;;;;;;;11.23;100.00;100875.94;5051634;28;20028;-55
2023/01/02 01:14:25;;;;;;;12.05;4.93;;;;;;;11.25;100.00;100879.31;5054191;28;20678;-55
2023/01/02 01:16:50;;;;;;;15.00;5.70;;;;;;;11.28;100.00;100874.59;5053877;28;20053;-51
2023/01/02 01:19:15;;;;;;;12.02;5.05;;;;;;;11.33;100.00;100873.41;5053339;28;20029;-54
2023/01/02 01:21:40;;;;;;;18.17;5.50;;;;;;;11.30;100.00;100874.47;5056524;28;20391;-55
2023/01/02 01:24:06;;;;;;;10.05;4.72;;;;;;;11.30;100.00;100877.97;5054108;28;20036;-52
2023/01/02 01:26:31;;;;;;;8.50;4.93;;;;;;;11.31;100.00;100878.84;5036999;28;20079;-51
2023/01/02 01:28:57;;;;;;;14.68;5.20;;;;;;;11.33;100.00;100874.25;5036866;28;20061;-54
2023/01/02 01:31:23;;;;;;;12.00;5.05;;;;;;;11.34;100.00;100877.75;5041880;28;20021;-53
2023/01/02 01:33:49;;;;;;;12.23;4.93;;;;;;;11.34;100.00;100875.94;5051725;28;20024;-52
2023/01/02 01:36:17;;;;;;;10.90;4.60;;;;;;;11.37;100.00;100877.50;5043580;28;20021;-54
2023/01/02 01:38:43;;;;;;;13.75;4.75;;;;;;;11.39;100.00;100875.56;5053962;28;20024;-52
2023/01/02 01:41:14;;;;;;;12.65;5.03;;;;;;;11.37;100.00;100878.34;5055272;28;20437;-51
2023/01/02 01:43:49;;;;;;;13.57;4.18;;;;;;;11.40;100.00;100877.25;5041200;28;20116;-53
2023/01/02 01:46:24;;;;;;;14.27;4.55;;;;;;;11.39;100.00;100878.22;5054921;28;20029;-52
2023/01/02 01:48:58;;;;;;;13.43;5.00;;;;;;;11.39;100.00;100884.41;5054378;28;20052;-52
2023/01/02 01:51:26;;;;;;;10.48;4.45;;;;;;;11.40;100.00;100886.06;5055209;28;20029;-53
2023/01/02 01:53:56;;;;;;;13.48;4.72;;;;;;;11.40;100.00;100886.06;5053952;28;20501;-51
2023/01/02 01:56:22;;;;;;;15.15;5.47;;;;;;;11.40;100.00;100894.06;5054743;28;20029;-52
2023/01/02 01:58:48;;;;;;;9.82;4.43;;;;;;;11.41;100.00;100893.09;5054581;28;20071;-51
2023/01/02 02:01:15;;;;;;;12.20;4.40;;;;;;;11.43;100.00;100892.97;5040527;28;20356;-52
2023/01/02 02:03:44;;;;;;;14.40;4.80;;;;;;;11.45;100.00;100891.03;5054972;28;20041;-53
2023/01/02 02:06:09;;;;;;;13.40;4.17;;;;;;;11.44;100.00;100899.97;5054359;28;20474;-52
2023/01/02 02:08:58;;;;;;;9.13;4.05;;;;;;;11.44;100.00;100892.88;5054013;28;20291;-53
2023/01/02 02:11:23;;;;;;;13.00;5.05;;;;;;;11.45;100.00;100891.03;5049390;28;20039;-52
2023/01/02 02:13:49;;;;;;;17.27;4.20;;;;;;;11.47;100.00;100894.41;5054322;28;20104;-52
2023/01/02 02:16:24;;;;;;;13.27;4.15;;;;;;;11.45;100.00;100888.38;5053735;28;20037;-51
2023/01/02 02:19:16;;;;;;;8.57;4.38;;;;;;;11.48;100.00;100893.47;5053559;28;20431;-50
2023/01/02 02:21:48;;;;;;;13.90;4.47;;;;;;;11.47;100.00;100897.94;5054315;28;20028;-54
2023/01/02 02:24:34;;;;;;;14.38;4.57;;;;;;;11.47;100.00;100895.28;5053316;28;20483;-53
2023/01/02 02:27:24;;;;;;;9.88;4.43;;;;;;;11.45;100.00;100894.53;5054013;28;20383;-52
2023/01/02 02:30:04;;;;;;;13.27;4.35;;;;;;;11.45;100.00;100901.69;5054105;28;20029;-54
2023/01/02 02:32:44;;;;;;;11.80;4.40;;;;;;;11.45;100.00;100899.84;5053534;28;20029;-52
2023/01/02 02:35:34;;;;;;;15.80;4.78;;;;;;;11.45;100.00;100901.69;5040491;28;20035;-51
2023/01/02 02:38:08;;;;;;;10.55;4.25;;;;;;;11.43;100.00;100893.81;5053755;28;20476;-55
2023/01/02 02:40:47;;;;;;;18.00;4.38;;;;;;;11.46;100.00;100893.56;5051516;28;20029;-51
2023/01/02 02:43:34;;;;;;;13.15;4.28;;;;;;;11.50;100.00;100896.00;5053174;28;20117;-51
2023/01/02 02:46:06;;;;;;;12.60;3.70;;;;;;;11.48;100.00;100896.97;5052340;28;20032;-54
2023/01/02 02:48:43;;;;;;;11.43;4.30;;;;;;;11.50;100.00;100891.50;5047246;28;20039;-52
2023/01/02 02:51:17;;;;;;;11.15;3.90;;;;;;;11.52;100.00;100900.22;5050057;28;20029;-51
2023/01/02 02:53:50;;;;;;;11.23;4.22;;;;;;;11.51;100.00;100903.84;5053116;28;20025;-52
2023/01/02 02:56:18;;;;;;;11.20;4.05;;;;;;;11.53;100.00;100903.75;5053070;28;20422;-52
2023/01/02 02:58:45;;;;;;;12.27;4.03;;;;;;;11.51;100.00;100898.53;5053629;28;20028;-51
2023/01/02 03:01:15;;;;;;;12.38;4.18;;;;;;;11.52;100.00;100900.22;5052680;28;20017;-52
2023/01/02 03:03:41;;;;;;;11.30;4.05;;;;;;;11.51;100.00;100895.88;5045888;28;20021;-51
2023/01/02 03:06:41;;;;;;;13.25;4.22;;;;;;;11.55;100.00;100899.97;5052826;28;20463;-51
2023/01/02 03:09:50;;;;;;;10.68;4.35;;;;;;;11.52;100.00;100894.06;5051408;28;20516;-52
2023/01/02 03:12:24;;;;;;;11.63;4.25;;;;;;;11.51;100.00;100895.88;5040626;28;20502;-55
2023/01/02 03:14:58;;;;;;;13.45;4.47;;;;;;;11.49;100.00;100889.84;5052743;28;20457;-51
2023/01/02 03:17:48;;;;;;;10.45;4.30;;;;;;;11.50;100.00;100896.84;5052895;28;20053;-51
2023/01/02 03:20:18;;;;;;;14.38;4.63;;;;;;;11.49;100.00;100887.19;5053090;28;20029;-54
2023/01/02 03:22:49;;;;;;;7.93;4.20;;;;;;;11.47;100.00;100886.44;5052097;28;20056;-55
2023/01/02 03:25:16;;;;;;;8.45;4.07;;;;;;;11.46;100.00;100880.28;5052814;28;20028;-51
2023/01/02 03:27:45;;;;;;;9.23;3.97;;;;;;;11.45;100.00;100886.56;5052925;28;20083;-53
2023/01/02 03:30:16;;;;;;;13.85;4.88;;;;;;;11.43;100.00;100882.34;5052411;28;20079;-53
2023/01/02 03:33:01;;;;;;;9.68;4.20;;;;;;;11.43;100.00;100885.00;5052419;28;20562;-52
2023/01/02 03:35:33;;;;;;;8.85;4.40;;;;;;;11.45;100.00;100891.03;5039435;28;20021;-52
2023/01/02 03:38:02;;;;;;;9.30;3.95;;;;;;;11.43;100.00;100895.63;5052287;28;20068;-54
2023/01/02 03:40:36;;;;;;;6.72;3.45;;;;;;;11.44;100.00;100892.88;5052919;28;20524;-55
2023/01/02 03:43:16;;;;;;;10.75;4.00;;;;;;;11.45;100.00;100907.84;5052574;28;20049;-53
2023/01/02 03:45:49;;;;;;;9.25;4.13;;;;;;;11.43;100.00;100906.28;5052256;28;20029;-51
2023/01/02 03:48:39;;;;;;;12.07;4.85;;;;;;;11.45;100.00;100902.50;5050937;28;20029;-51
2023/01/02 03:51:05;;;;;;;11.75;4.15;;;;;;;11.43;100.00;100907.13;5052532;28;20154;-54
2023/01/02 03:53:33;;;;;;;9.18;4.10;;;;;;;11.44;100.00;100900.84;5051935;28;20789;-56
2023/01/02 03:56:13;;;;;;;9.35;3.90;;;;;;;11.46;100.00;100917.50;5052032;28;20029;-51
2023/01/02 03:58:50;;;;;;;10.85;3.97;;;;;;;11.46;100.00;100920.19;5052005;28;20032;-55
2023/01/02 04:01:27;;;;;;;10.73;3.63;;;;;;;11.48;100.00;100915.56;5052359;28;20032;-55
2023/01/02 04:04:00;;;;;;;12.40;4.10;;;;;;;11.45;100.00;100907.00;5051719;28;20029;-54
2023/01/02 04:06:37;;;;;;;8.13;4.10;;;;;;;11.48;100.00;100917.41;5052450;28;20108;-51
2023/01/02 04:09:10;;;;;;;12.07;4.18;;;;;;;11.47;100.00;100913.03;5048051;28;20080;-52
2023/01/02 04:11:39;;;;;;;7.75;3.40;;;;;;;11.44;100.00;100916.81;5052827;28;20083;-55
2023/01/02 04:14:15;;;;;;;9.38;3.90;;;;;;;11.44;100.00;100915.94;5051715;28;20021;-54
2023/01/02 04:16:44;;;;;;;7.32;3.95;;;;;;;11.41;100.00;100918.84;5052040;28;20411;-55
2023/01/02 04:19:18;;;;;;;8.27;4.03;;;;;;;11.41;100.00;100918.84;5051332;28;20376;-55
2023/01/02 04:21:47;;;;;;;10.82;4.07;;;;;;;11.38;100.00;100925.25;5052118;28;20736;-55
2023/01/02 04:24:20;;;;;;;8.88;4.10;;;;;;;11.37;100.00;100928.03;5050329;28;20053;-54
2023/01/02 04:27:00;;;;;;;12.32;3.63;;;;;;;11.36;100.00;100929.84;5052103;28;20048;-52
2023/01/02 04:29:26;;;;;;;11.23;4.38;;;;;;;11.36;100.00;100936.97;5052056;28;20052;-52
2023/01/02 04:32:02;;;;;;;12.25;4.93;;;;;;;11.35;100.00;100937.94;5052136;28;20471;-51
2023/01/02 04:34:31;;;;;;;11.80;4.10;;;;;;;11.35;100.00;100943.25;5039360;28;20124;-55
2023/01/02 04:36:56;;;;;;;12.38;4.00;;;;;;;11.34;100.00;100938.91;5049827;28;20036;-53
2023/01/02 04:39:24;;;;;;;10.93;4.18;;;;;;;11.33;100.00;100938.06;5051373;28;20029;-52
2023/01/02 04:41:49;;;;;;;9.50;4.03;;;;;;;11.35;100.00;100945.94;5050609;28;20025;-51
2023/01/02 04:44:14;;;;;;;11.90;3.90;;;;;;;11.33;100.00;100948.69;5051708;28;20393;-51
2023/01/02 04:46:39;;;;;;;11.98;4.15;;;;;;;11.34;100.00;100944.22;5051162;28;20041;-51
2023/01/02 04:49:05;;;;;;;12.07;4.10;;;;;;;11.34;100.00;100955.72;5060154;28;20024;-53
2023/01/02 04:51:30;;;;;;;13.88;4.82;;;;;;;11.34;100.00;100957.53;5052699;28;20036;-54
2023/01/02 04:53:55;;;;;;;7.93;4.18;;;;;;;11.35;100.00;100948.59;5052072;28;20025;-52
2023/01/02 04:56:21;;;;;;;9.40;3.80;;;;;;;11.35;100.00;100949.41;5050645;28;20025;-51
2023/01/02 04:58:47;;;;;;;12.82;3.97;;;;;;;11.36;100.00;100960.91;5052035;28;20047;-51
2023/01/02 05:01:15;;;;;;;8.18;3.80;;;;;;;11.35;100.00;100960.06;5049717;28;20027;-51
2023/01/02 05:03:42;;;;;;;11.38;3.80;;;;;;;11.36;100.00;100968.88;5050970;28;20032;-52
2023/01/02 05:06:08;;;;;;;11.77;4.00;;;;;;;11.37;100.00;100960.78;5051125;28;20021;-54
2023/01/02 05:08:34;;;;;;;8.82;3.92;;;;;;;11.37;100.00;100963.44;5051045;28;20029;-51
2023/01/02 05:11:13;;;;;;;10.77;4.18;;;;;;;11.37;100.00;100968.75;5051079;28;20029;-53
2023/01/02 05:13:39;;;;;;;12.18;3.97;;;;;;;11.38;100.00;100972.28;5050158;28;20021;-51
2023/01/02 05:16:05;;;;;;;7.78;3.72;;;;;;;11.37;100.00;100966.09;5050488;28;20029;-53
2023/01/02 05:18:30;;;;;;;9.77;3.47;;;;;;;11.37;100.00;100962.59;5051322;28;20045;-51
2023/01/02 05:21:05;;;;;;;7.65;3.13;;;;;;;11.40;100.00;100970.34;5051329;28;20112;-53
2023/01/02 05:23:48;;;;;;;6.38;3.35;;;;;;;11.41;100.00;100972.03;5050990;28;20430;-53
2023/01/02 05:26:15;;;;;;;9.77;3.95;;;;;;;11.41;100.00;100977.38;5051552;28;20028;-51
2023/01/02 05:28:40;;;;;;;14.68;3.95;;;;;;;11.40;100.00;100976.50;5050186;28;20407;-53
2023/01/02 05:31:06;;;;;;;10.52;3.70;;;;;;;11.41;100.00;100975.53;5050788;28;20025;-54
2023/01/02 05:33:32;;;;;;;8.43;3.75;;;;;;;11.41;100.00;100972.03;5047823;28;20048;-53
2023/01/02 05:35:57;;;;;;;8.10;3.53;;;;;;;11.41;100.00;100986.19;5049519;28;20029;-51
2023/01/02 05:38:22;;;;;;;8.52;3.55;;;;;;;11.42;100.00;100989.69;5051086;28;20021;-54
2023/01/02 05:40:47;;;;;;;6.70;3.30;;;;;;;11.41;100.00;100998.66;5051353;28;20144;-51
2023/01/02 05:43:13;;;;;;;12.00;3.47;;;;;;;11.43;100.00;101002.84;5055494;28;20049;-56
2023/01/02 05:45:38;;;;;;;9.70;3.30;;;;;;;11.42;100.00;101003.84;5050798;28;20028;-53
2023/01/02 05:48:04;;;;;;;8.32;3.05;;;;;;;11.42;100.00;101018.94;5054782;28;20036;-52
2023/01/02 05:50:29;;;;;;;5.70;3.10;;;;;;;11.42;100.00;101019.81;5047207;28;20099;-54
2023/01/02 05:52:55;;;;;;;7.20;2.95;;;;;;;11.43;100.00;101012.66;5054809;28;20044;-54
2023/01/02 05:55:20;;;;;;;6.45;3.25;;;;;;;11.43;100.00;101025.97;5054819;28;20029;-52
2023/01/02 05:57:45;;;;;;;6.25;2.83;;;;;;;11.42;100.00;101021.59;5053659;28;20028;-52
2023/01/02 06:00:11;;;;;;;8.40;3.13;;;;;;;11.41;100.00;101026.06;5054909;28;20021;-52
2023/01/02 06:02:37;;;;;;;6.97;2.97;;;;;;;11.41;100.00;101028.72;5054060;28;20103;-52
2023/01/02 06:05:02;;;;;;;5.75;3.00;;;;;;;11.41;100.00;101028.72;5060618;28;20146;-52
2023/01/02 06:07:27;;;;;;;7.43;3.40;;;;;;;11.40;100.00;101035.00;5055886;28;20368;-51
2023/01/02 06:09:53;;;;;;;8.50;2.78;;;;;;;11.38;100.00;101047.59;5053510;28;20576;-50
2023/01/02 06:12:18;;;;;;;7.93;3.50;;;;;;;11.35;100.00;101036.34;5053067;28;20043;-55
2023/01/02 06:14:43;;;;;;;7.30;3.67;;;;;;;11.34;100.00;101047.94;5054751;28;20021;-54
2023/01/02 06:17:08;;;;;;;6.88;3.20;;;;;;;11.30;100.00;101053.47;5053840;28;20128;-51
2023/01/02 06:19:34;;;;;;;8.10;3.40;;;;;;;11.28;100.00;101062.56;5054602;28;20020;-51
2023/01/02 06:21:59;;;;;;;8.38;3.10;;;;;;;11.24;100.00;101069.91;5053460;28;20029;-52
2023/01/02 06:24:24;;;;;;;6.13;2.65;;;;;;;11.22;100.00;101074.47;5054572;28;20418;-52
2023/01/02 06:26:50;;;;;;;5.95;3.15;;;;;;;11.16;100.00;101098.91;5054152;28;20024;-53
2023/01/02 06:29:15;;;;;;;4.25;2.67;;;;;;;11.06;100.00;101111.19;5054139;28;20048;-52
2023/01/02 06:31:41;;;;;;;4.72;2.45;;;;;;;10.93;100.00;101127.19;5054068;28;20036;-54
2023/01/02 06:34:06;;;;;;;3.00;1.88;;;;;;;10.82;100.00;101119.97;5046616;28;20514;-55
2023/01/02 06:36:33;;;;;;;2.97;2.28;;;;;;;10.73;100.00;101129.47;5049111;28;20530;-55
2023/01/02 06:38:58;;;;;;;2.53;1.65;;;;;;;10.67;100.00;101131.72;5053885;28;20031;-55
2023/01/02 06:41:24;;;;;;;1.50;1.30;;;;;;;10.61;100.00;101134.81;5053813;28;20024;-55
2023/01/02 06:43:50;;;;;;;1.38;1.20;;;;;;;10.51;100.00;101151.44;5053866;28;20037;-56
2023/01/02 06:46:18;;;;;;;2.78;1.10;;;;;;;10.44;100.00;101158.16;5053695;28;20538;-56
2023/01/02 06:48:44;;;;;;;2.25;1.08;;;;;;;10.35;100.00;101166.75;5053982;28;20013;-56
2023/01/02 06:51:13;;;;;;;1.48;0.98;;;;;;;10.26;100.00;101167.34;5053469;28;20504;-55
2023/01/02 06:53:40;;;;;;;0.65;0.65;;;;;;;10.20;100.00;101173.97;5046245;28;20028;-55
2023/01/02 06:56:06;;;;;;;1.17;1.08;;;;;;;10.13;100.00;101172.69;5051509;28;20087;-55
2023/01/02 06:58:34;;;;;;;1.10;1.10;;;;;;;10.07;100.00;101178.41;5046511;28;20033;-55
2023/01/02 07:01:02;;;;;;;1.05;0.95;;;;;;;10.06;100.00;101197.94;5043984;28;20056;-54
2023/01/02 07:03:27;;;;;;;2.88;0.90;;;;;;;10.01;100.00;101195.63;5051348;28;20029;-56
2023/01/02 07:05:52;;;;;;;1.30;1.20;;;;;;;9.97;100.00;101207.38;5052447;28;20112;-56
2023/01/02 07:08:17;;;;;;;1.13;1.10;;;;;;;9.91;100.00;101218.41;5050481;28;20502;-57
2023/01/02 07:10:43;;;;;;;1.17;1.13;;;;;;;9.85;100.00;101225.00;5053232;28;20112;-57
2023/01/02 07:13:08;;;;;;;1.67;1.58;;;;;;;9.82;100.00;101239.34;5052902;28;20541;-56
2023/01/02 07:15:33;;;;;;;1.52;1.30;;;;;;;9.78;100.00;101232.50;5047028;28;20025;-57
2023/01/02 07:17:59;;;;;;;1.63;1.52;;;;;;;9.76;100.00;101247.69;5037959;28;20056;-57
2023/01/02 07:20:24;;;;;;;1.63;1.52;;;;;;;9.73;100.00;101255.84;5036011;28;20017;-57
2023/01/02 07:22:51;;;;;;;1.90;1.80;;;;;;;9.70;100.00;101263.16;5035010;28;20041;-57
2023/01/02 07:25:16;;;;;;;2.50;1.83;;;;;;;9.66;100.00;101267.81;5041807;28;20052;-57
2023/01/02 07:27:42;;;;;;;2.90;2.45;;;;;;;9.64;100.00;101275.00;5046905;28;20495;-56
2023/01/02 07:30:08;;;;;;;2.70;2.50;;;;;;;9.58;100.00;101281.59;5041887;28;20032;-55
2023/01/02 07:32:33;;;;;;;2.80;2.60;;;;;;;9.55;100.00;101292.38;5044242;28;20037;-57
2023/01/02 07:34:58;;;;;;;3.22;2.90;;;;;;;9.53;100.00;101299.59;5048490;28;20021;-55
2023/01/02 07:37:24;;;;;;;3.90;2.83;;;;;;;9.53;100.00;101293.44;5048565;28;20106;-57
2023/01/02 07:39:49;;;;;;;3.45;3.15;;;;;;;9.52;100.00;101295.22;5046383;28;20052;-57
2023/01/02 07:42:15;;;;;;;3.60;3.30;;;;;;;9.50;100.00;101299.78;5047865;28;20510;-56
2023/01/02 07:44:40;;;;;;;4.88;3.80;;;;;;;9.49;100.00;101307.84;5047610;28;20017;-57
2023/01/02 07:47:05;;;;;;;4.30;3.97;;;;;;;9.45;100.00;101312.50;5048997;28;20045;-56
2023/01/02 07:49:30;;;;;;;4.57;4.22;;;;;;;9.42;100.00;101321.47;5046531;28;20109;-57
2023/01/02 07:51:56;;;;;;;5.60;5.13;;;;;;;9.40;100.00;101330.50;5043097;28;20430;-57
2023/01/02 07:54:21;;;;;;;5.72;5.22;;;;;;;9.35;100.00;101336.09;5039695;28;20439;-55
2023/01/02 07:56:46;;;;;;;5.80;5.30;;;;;;;9.34;100.00;101338.84;5037649;28;20048;-55
2023/01/02 07:59:12;;;;;;;6.18;5.68;;;;;;;9.34;100.00;101342.38;5051528;28;20450;-54
2023/01/02 08:01:37;;;;;;;7.05;6.45;;;;;;;9.33;100.00;101353.06;5049345;28;20037;-57
2023/01/02 08:04:02;;;;;;;7.85;6.95;;;;;;;9.30;100.00;101354.09;5049066;28;20036;-57
2023/01/02 08:06:27;;;;;;;8.18;6.80;;;;;;;9.26;100.00;101361.38;5048314;28;20475;-57
2023/01/02 08:08:53;;;;;;;7.70;7.00;;;;;;;9.23;100.00;101366.88;5049849;28;20024;-57
2023/01/02 08:11:20;;;;;;;8.00;7.18;;;;;;;9.18;100.00;101371.63;5049179;28;20048;-57
2023/01/02 08:13:46;;;;;;;7.13;6.43;;;;;;;9.16;100.00;101392.06;5050268;28;20033;-56
2023/01/02 08:16:16;;;;;;;6.72;6.13;;;;;;;9.12;100.00;101395.84;5044715;28;20051;-55
2023/01/02 08:18:42;;;;;;;6.38;5.78;;;;;;;9.09;100.00;101398.69;5047543;28;20033;-57
2023/01/02 08:21:08;;;;;;;5.85;5.32;;;;;;;9.05;100.00;101399.81;5047567;28;20146;-56
2023/01/02 08:23:34;;;;;;;8.10;5.35;;;;;;;9.02;100.00;101405.31;5050061;28;20021;-56
2023/01/02 08:26:01;;;;;;;5.70;5.20;;;;;;;9.01;100.00;101412.41;5045094;28;20040;-56
2023/01/02 08:28:27;;;;;;;6.43;5.82;;;;;;;8.99;100.00;101411.66;5045489;28;20071;-53
2023/01/02 08:30:52;;;;;;;6.55;5.70;;;;;;;8.97;100.00;101408.22;5044652;28;20060;-58
2023/01/02 08:33:18;;;;;;;7.40;6.00;;;;;;;8.96;100.00;101419.78;5046350;28;20045;-56
2023/01/02 08:35:43;;;;;;;7.10;6.28;;;;;;;8.95;100.00;101426.03;5050608;28;20543;-57
2023/01/02 08:38:08;;;;;;;6.75;6.10;;;;;;;8.93;100.00;101429.72;5047705;28;20040;-57
2023/01/02 08:40:33;;;;;;;6.70;6.03;;;;;;;8.89;100.00;101429.03;5043969;28;20033;-56
2023/01/02 08:42:59;;;;;;;6.18;5.45;;;;;;;8.88;100.00;101430.84;5047790;28;20041;-57
2023/01/02 08:45:24;;;;;;;6.10;5.40;;;;;;;8.86;100.00;101438.03;5043229;28;20029;-57
2023/01/02 08:47:49;;;;;;;6.03;5.40;;;;;;;8.85;100.00;101444.25;5046210;28;20102;-56
2023/01/02 08:50:15;;;;;;;5.85;5.25;;;;;;;8.82;100.00;101446.25;5045718;28;20052;-56
2023/01/02 08:52:40;;;;;;;7.30;6.15;;;;;;;8.82;100.00;101454.19;5042823;28;20509;-53
2023/01/02 08:55:06;;;;;;;6.30;5.68;;;;;;;8.80;100.00;101456.94;5043934;28;20022;-58
2023/01/02 08:57:31;;;;;;;6.05;5.38;;;;;;;8.79;100.00;101457.03;5048484;28;20047;-55
2023/01/02 08:59:57;;;;;;;6.93;5.72;;;;;;;8.77;100.00;101465.06;5047476;28;20461;-57
2023/01/02 09:02:22;;;;;;;8.27;5.75;;;;;;;8.77;100.00;101464.22;5047845;28;20120;-56
2023/01/02 09:04:47;;;;;;;6.00;5.40;;;;;;;8.76;100.00;101462.50;5045615;28;20029;-55
2023/01/02 09:07:12;;;;;;;8.10;5.18;;;;;;;8.74;100.00;101465.22;5049486;28;20525;-56
2023/01/02 09:09:38;;;;;;;5.68;4.95;;;;;;;8.75;100.00;101466.09;5046570;28;20033;-55
2023/01/02 09:12:03;;;;;;;7.65;4.85;;;;;;;8.76;100.00;101481.03;5047446;28;20040;-58
2023/01/02 09:14:29;;;;;;;6.20;4.63;;;;;;;8.75;100.00;101479.34;5047864;28;20025;-55
2023/01/02 09:16:56;;;;;;;6.72;4.50;;;;;;;8.74;100.00;101493.53;5049029;28;20128;-57
2023/01/02 09:19:22;;;;;;;5.90;4.13;;;;;;;8.73;100.00;101495.31;5038834;28;20026;-56
2023/01/02 09:21:47;;;;;;;5.43;4.63;;;;;;;8.74;100.00;101502.31;5051396;28;20071;-57
2023/01/02 09:24:12;;;;;;;5.53;4.18;;;;;;;8.75;100.00;101513.78;5054069;28;20127;-58
2023/01/02 09:26:40;;;;;;;6.85;4.18;;;;;;;8.74;100.00;101531.44;5055725;28;20111;-57
2023/01/02 09:29:05;;;;;;;4.80;4.25;;;;;;;8.74;100.00;101531.44;5050932;28;20544;-56
2023/01/02 09:31:31;;;;;;;8.82;4.20;;;;;;;8.74;100.00;101522.66;5053182;28;20025;-57
2023/01/02 09:33:56;;;;;;;5.20;3.85;;;;;;;8.74;100.00;101522.66;5041393;28;20104;-57
2023/01/02 09:36:22;;;;;;;4.18;3.80;;;;;;;8.75;100.00;101532.31;5047446;28;20106;-55
2023/01/02 09:38:55;;;;;;;7.88;4.30;;;;;;;8.77;100.00;101541.03;5039161;28;20383;-54
2023/01/02 09:41:32;;;;;;;4.65;3.90;;;;;;;8.76;100.00;101540.19;5039132;28;20029;-58
2023/01/02 09:43:59;;;;;;;6.90;4.05;;;;;;;8.76;100.00;101539.31;5042090;28;20495;-58
2023/01/02 09:46:28;;;;;;;6.55;4.22;;;;;;;8.76;100.00;101534.88;5044968;28;20032;-56
2023/01/02 09:48:53;;;;;;;7.68;4.32;;;;;;;8.79;100.00;101544.44;5049785;28;20029;-58
2023/01/02 09:51:19;;;;;;;8.07;4.20;;;;;;;8.80;100.00;101546.16;5036045;28;20025;-58
2023/01/02 09:53:44;;;;;;;5.00;3.80;;;;;;;8.81;100.00;101553.13;5054640;28;20028;-57
2023/01/02 09:56:20;;;;;;;6.65;4.13;;;;;;;8.81;100.00;101553.13;5054196;28;20028;-57
2023/01/02 09:58:53;;;;;;;6.20;4.10;;;;;;;8.81;100.00;101555.78;5037298;28;20051;-58
2023/01/02 10:01:27;;;;;;;6.75;4.40;;;;;;;8.81;100.00;101556.66;5035298;28;20030;-55
2023/01/02 10:04:12;;;;;;;6.60;4.25;;;;;;;8.83;100.00;101552.13;5041052;28;20386;-56
2023/01/02 10:06:50;;;;;;;8.10;4.00;;;;;;;8.83;100.00;101572.47;5053754;28;20040;-53
2023/01/02 10:09:23;;;;;;;5.60;4.20;;;;;;;8.81;100.00;101575.19;5055186;28;20031;-54
2023/01/02 10:12:26;;;;;;;5.80;4.10;;;;;;;8.86;100.00;101578.44;5054787;28;20028;-57
2023/01/02 10:15:05;;;;;;;5.72;3.90;;;;;;;8.86;100.00;101572.28;5051383;28;20042;-57
2023/01/02 10:17:38;;;;;;;5.72;4.30;;;;;;;8.85;100.00;101565.28;5050679;28;20097;-59
2023/01/02 10:20:15;;;;;;;5.00;4.50;;;;;;;8.83;100.00;101575.97;5054231;28;20025;-58
2023/01/02 10:22:46;;;;;;;6.22;4.82;;;;;;;8.83;100.00;101570.66;5047182;28;20386;-58
2023/01/02 10:25:18;;;;;;;11.05;4.97;;;;;;;8.86;100.00;101562.53;5044559;28;20078;-59
2023/01/02 10:27:53;;;;;;;7.55;5.32;;;;;;;8.86;100.00;101565.19;5050405;28;20036;-59
2023/01/02 10:30:22;;;;;;;5.55;5.00;;;;;;;8.91;100.00;101566.69;5050157;28;20086;-59
2023/01/02 10:33:08;;;;;;;6.68;5.40;;;;;;;8.95;100.00;101582.34;5051785;28;20074;-60
2023/01/02 10:35:43;;;;;;;7.30;5.93;;;;;;;8.96;100.00;101591.13;5050863;28;20021;-60
2023/01/02 10:38:14;;;;;;;8.70;5.63;;;;;;;8.97;100.00;101592.84;5051132;28;20044;-57
2023/01/02 10:40:46;;;;;;;9.18;6.03;;;;;;;9.00;100.00;101596.16;5041293;28;20138;-57
2023/01/02 10:43:13;;;;;;;8.68;6.13;;;;;;;9.00;100.00;101592.69;5043203;28;20035;-55
2023/01/02 10:45:39;;;;;;;9.85;6.28;;;;;;;9.00;100.00;101585.56;5050600;28;20025;-57
2023/01/02 10:48:04;;;;;;;6.75;6.05;;;;;;;8.99;100.00;101583.00;5051793;28;20545;-53
2023/01/02 10:50:37;;;;;;;6.95;6.25;;;;;;;8.98;100.00;101595.41;5044401;28;20571;-56
2023/01/02 10:53:38;;;;;;;7.43;6.38;;;;;;;9.01;100.00;101595.25;5053291;28;20533;-54
2023/01/02 10:56:24;;;;;;;8.98;7.28;;;;;;;9.02;100.00;101594.28;5052383;28;20134;-56
2023/01/02 10:58:50;;;;;;;8.88;7.43;;;;;;;9.02;100.00;101599.56;5042516;28;20049;-55
2023/01/02 11:01:18;;;;;;;9.43;7.28;;;;;;;9.02;100.00;101598.72;5052906;28;20534;-57
2023/01/02 11:03:45;;;;;;;8.82;7.85;;;;;;;9.04;100.00;101605.66;5052346;28;20025;-56
2023/01/02 11:06:23;;;;;;;10.65;8.30;;;;;;;9.08;100.00;101609.84;5052536;28;20052;-56
2023/01/02 11:09:00;;;;;;;11.18;8.73;;;;;;;9.09;100.00;101608.03;5052457;28;20131;-57
2023/01/02 11:11:28;;;;;;;12.85;8.95;;;;;;;9.13;100.00;101608.72;5052515;28;20025;-57
2023/01/02 11:13:55;;;;;;;12.05;8.85;;;;;;;9.13;100.00;101614.88;5057163;28;20063;-56
2023/01/02 11:16:22;;;;;;;12.05;9.13;;;;;;;9.16;100.00;101608.53;5049015;28;20427;-55
2023/01/02 11:18:51;;;;;;;11.10;9.35;;;;;;;9.16;100.00;101613.81;5037710;28;20042;-57
2023/01/02 11:21:28;;;;;;;10.93;9.43;;;;;;;9.20;100.00;101612.72;5044070;28;20490;-56
2023/01/02 11:24:15;;;;;;;11.20;9.48;;;;;;;9.20;100.00;101621.50;5042569;28;20060;-57
2023/01/02 11:26:43;;;;;;;11.23;9.55;;;;;;;9.19;100.00;101616.31;5050862;28;20029;-55